< < Back
Terminal Aerodrome Forecast


Current Version              Previous Versions:   1  2  3  4  5  6  7  8  9  

Terminal Aerodrome Forecast

129
FTUS44 KBMX 312300 RRA
TAFMGM
TAF
KMGM 312341Z 0100/0124 00000KT P6SM SCT250
     FM011000 00000KT 6SM BR SCT025
     FM011400 25006KT P6SM SCT050 SCT250=

Latest METAR

398
SAUS80 KWBC 020200 RRA
MTRMGM
METAR KMGM 020153Z 21004KT 10SM CLR 28/22 A3007 RMK AO2 SLP179
T02830222


USA.gov is the U.S. government's official web portal to all federal, state and local government web resources and services.